Time;durP1;ratioP1;P1;durP2;ratioP2;P2;SDS_P1;SDS_P2;PMS_P1;PMS_P2;Temp;Humidity;BMP_temperature;BMP_pressure;BME280_temperature;BME280_humidity;BME280_pressure;Samples;Min_cycle;Max_cycle;Signal;HPM_P1;HPM_P2
2021/12/18 00:00:14;;;;;;;0.50;0.50;;;;;;;;;;4952909;28;20199;-65
2021/12/18 00:02:40;;;;;;;0.60;0.60;;;;;;;;;;4953553;28;20494;-64
2021/12/18 00:05:06;;;;;;;0.60;0.60;;;;;;;;;;4953426;28;20206;-64
2021/12/18 00:07:34;;;;;;;0.50;0.50;;;;;;;;;;4953593;28;20438;-65
2021/12/18 00:10:00;;;;;;;0.40;0.40;;;;;;;;;;4954408;28;20536;-65
2021/12/18 00:12:26;;;;;;;0.50;0.50;;;;;;;;;;4957103;28;20261;-62
2021/12/18 00:14:52;;;;;;;0.50;0.50;;;;;;;;;;4957939;28;20409;-65
2021/12/18 00:17:18;;;;;;;0.50;0.50;;;;;;;;;;4956208;28;20464;-63
2021/12/18 00:19:44;;;;;;;0.40;0.40;;;;;;;;;;4957331;28;20779;-65
2021/12/18 00:22:10;;;;;;;0.50;0.50;;;;;;;;;;4956783;28;20506;-65
2021/12/18 00:24:36;;;;;;;0.50;0.50;;;;;;;;;;4957364;28;20748;-65
2021/12/18 00:27:02;;;;;;;0.40;0.40;;;;;;;;;;4957253;28;20463;-64
2021/12/18 00:29:28;;;;;;;0.50;0.50;;;;;;;;;;4957098;28;20894;-65
2021/12/18 00:31:54;;;;;;;0.50;0.50;;;;;;;;;;4956506;28;20179;-65
2021/12/18 00:34:20;;;;;;;0.50;0.50;;;;;;;;;;4957027;28;20237;-65
2021/12/18 00:36:46;;;;;;;0.40;0.40;;;;;;;;;;4957423;28;20186;-65
2021/12/18 00:39:12;;;;;;;0.50;0.50;;;;;;;;;;4957368;28;20724;-65
2021/12/18 00:44:13;;;;;;;0.50;0.50;;;;;;;;;;4957058;28;20179;-65
2021/12/18 00:46:41;;;;;;;0.50;0.50;;;;;;;;;;4956934;28;20188;-65
2021/12/18 00:49:08;;;;;;;0.50;0.50;;;;;;;;;;4956818;28;20170;-66
2021/12/18 00:51:34;;;;;;;0.50;0.50;;;;;;;;;;4956305;28;20211;-64
2021/12/18 00:54:00;;;;;;;0.50;0.50;;;;;;;;;;4956512;28;20182;-64
2021/12/18 00:56:26;;;;;;;0.50;0.50;;;;;;;;;;4956573;28;20234;-65
2021/12/18 00:58:52;;;;;;;0.50;0.50;;;;;;;;;;4956774;28;20209;-65
2021/12/18 01:01:20;;;;;;;0.50;0.50;;;;;;;;;;4955366;28;20251;-65
2021/12/18 01:03:47;;;;;;;0.50;0.50;;;;;;;;;;4956132;28;20525;-65
2021/12/18 01:06:13;;;;;;;0.50;0.50;;;;;;;;;;4956349;28;20183;-64
2021/12/18 01:08:39;;;;;;;0.60;0.60;;;;;;;;;;4955561;29;20716;-65
2021/12/18 01:14:02;;;;;;;0.50;0.50;;;;;;;;;;4956385;28;20752;-65
2021/12/18 01:16:40;;;;;;;0.50;0.50;;;;;;;;;;4956447;28;20180;-64
2021/12/18 01:24:35;;;;;;;0.50;0.50;;;;;;;;;;4954191;29;20239;-63
2021/12/18 01:27:01;;;;;;;0.50;0.50;;;;;;;;;;4955167;29;20180;-64
2021/12/18 01:29:27;;;;;;;0.60;0.60;;;;;;;;;;4954947;29;20526;-64
2021/12/18 01:31:53;;;;;;;0.60;0.60;;;;;;;;;;4955600;28;20926;-64
2021/12/18 01:34:19;;;;;;;0.50;0.50;;;;;;;;;;4954882;29;20953;-64
2021/12/18 01:36:45;;;;;;;0.50;0.50;;;;;;;;;;4956103;28;20435;-65
2021/12/18 01:39:11;;;;;;;0.50;0.50;;;;;;;;;;4956043;28;20321;-64
2021/12/18 01:41:56;;;;;;;0.40;0.40;;;;;;;;;;4955328;28;20238;-64
2021/12/18 01:51:16;;;;;;;0.50;0.50;;;;;;;;;;4955994;29;20189;-64
2021/12/18 01:52:37;;;;;;;0.70;0.70;;;;;;;;;;4956103;29;20297;-64
2021/12/18 01:55:04;;;;;;;0.60;0.60;;;;;;;;;;4956002;28;20182;-64
2021/12/18 01:57:31;;;;;;;0.50;0.50;;;;;;;;;;4956000;28;20185;-64
2021/12/18 01:59:57;;;;;;;0.50;0.50;;;;;;;;;;4955741;28;20277;-63
2021/12/18 02:02:23;;;;;;;0.50;0.50;;;;;;;;;;4954854;28;20208;-64
2021/12/18 02:04:49;;;;;;;0.50;0.50;;;;;;;;;;4954880;28;20647;-63
2021/12/18 02:07:15;;;;;;;0.60;0.60;;;;;;;;;;4938496;29;20523;-63
2021/12/18 02:12:37;;;;;;;0.60;0.60;;;;;;;;;;4955290;29;20188;-64
2021/12/18 02:20:49;;;;;;;0.50;0.50;;;;;;;;;;4954999;29;20233;-64
2021/12/18 02:23:15;;;;;;;0.50;0.50;;;;;;;;;;4955421;28;20684;-64
2021/12/18 02:25:41;;;;;;;0.50;0.50;;;;;;;;;;4955184;28;20181;-63
2021/12/18 02:28:14;;;;;;;0.50;0.50;;;;;;;;;;4955383;28;20174;-64
2021/12/18 02:30:41;;;;;;;0.40;0.40;;;;;;;;;;4954537;28;20205;-64
2021/12/18 02:33:07;;;;;;;0.60;0.60;;;;;;;;;;4954976;28;20681;-64
2021/12/18 02:35:38;;;;;;;0.67;0.67;;;;;;;;;;4955208;28;20189;-64
2021/12/18 02:38:13;;;;;;;0.60;0.60;;;;;;;;;;4953461;28;20488;-63
2021/12/18 02:43:37;;;;;;;0.50;0.50;;;;;;;;;;4950298;28;20229;-64
2021/12/18 02:46:07;;;;;;;0.60;0.60;;;;;;;;;;4955062;28;20183;-64
2021/12/18 02:48:34;;;;;;;0.60;0.60;;;;;;;;;;4953202;28;20177;-64
2021/12/18 02:51:00;;;;;;;0.50;0.50;;;;;;;;;;4954065;28;20253;-62
2021/12/18 02:53:26;;;;;;;0.50;0.50;;;;;;;;;;4954720;28;20718;-62
2021/12/18 02:56:00;;;;;;;0.50;0.50;;;;;;;;;;4954781;28;20257;-64
2021/12/18 02:58:26;;;;;;;0.70;0.70;;;;;;;;;;4954660;28;20184;-64
2021/12/18 03:00:53;;;;;;;0.50;0.50;;;;;;;;;;4953904;28;20204;-65
2021/12/18 03:03:20;;;;;;;0.50;0.50;;;;;;;;;;4954480;28;20215;-64
2021/12/18 03:06:01;;;;;;;0.50;0.50;;;;;;;;;;4954404;28;20197;-64
2021/12/18 03:08:43;;;;;;;0.70;0.70;;;;;;;;;;4954760;28;20180;-64
2021/12/18 03:20:23;;;;;;;0.50;0.50;;;;;;;;;;4954409;29;20195;-64
2021/12/18 03:27:21;;;;;;;0.50;0.50;;;;;;;;;;4954507;28;20206;-64
2021/12/18 03:29:47;;;;;;;0.50;0.50;;;;;;;;;;4954117;28;20192;-64
2021/12/18 03:32:13;;;;;;;0.50;0.50;;;;;;;;;;4953649;28;20224;-63
2021/12/18 03:34:39;;;;;;;0.50;0.50;;;;;;;;;;4954144;28;20423;-64
2021/12/18 03:37:05;;;;;;;0.60;0.60;;;;;;;;;;4954164;28;20509;-64
2021/12/18 03:39:32;;;;;;;0.50;0.50;;;;;;;;;;4954216;28;20236;-64
2021/12/18 03:41:58;;;;;;;0.60;0.60;;;;;;;;;;4953672;28;20212;-64
2021/12/18 03:44:24;;;;;;;0.60;0.60;;;;;;;;;;4953502;28;20180;-64
2021/12/18 03:46:50;;;;;;;0.50;0.50;;;;;;;;;;4954121;28;20281;-64
2021/12/18 03:49:19;;;;;;;0.50;0.50;;;;;;;;;;4953881;28;20695;-64
2021/12/18 03:51:45;;;;;;;0.50;0.50;;;;;;;;;;4953992;28;20431;-64
2021/12/18 03:54:11;;;;;;;0.50;0.50;;;;;;;;;;4953913;28;20186;-64
2021/12/18 03:56:37;;;;;;;0.50;0.50;;;;;;;;;;4953967;28;20175;-65
2021/12/18 03:59:03;;;;;;;0.57;0.57;;;;;;;;;;4953817;28;20417;-64
2021/12/18 04:01:29;;;;;;;0.60;0.60;;;;;;;;;;4953107;28;20432;-64
2021/12/18 04:03:55;;;;;;;0.50;0.50;;;;;;;;;;4952452;29;20213;-64
2021/12/18 04:06:21;;;;;;;0.50;0.50;;;;;;;;;;4955927;28;20566;-64
2021/12/18 04:08:47;;;;;;;0.60;0.60;;;;;;;;;;4954270;28;20534;-63
2021/12/18 04:11:13;;;;;;;0.50;0.50;;;;;;;;;;4986123;23;20231;-65
2021/12/18 04:13:44;;;;;;;0.50;0.50;;;;;;;;;;4972662;28;20642;-65
2021/12/18 04:16:10;;;;;;;0.50;0.50;;;;;;;;;;4972785;28;20418;-65
2021/12/18 04:18:36;;;;;;;0.50;0.50;;;;;;;;;;4972753;28;20184;-65
2021/12/18 04:21:02;;;;;;;0.50;0.50;;;;;;;;;;4971998;28;20678;-65
2021/12/18 04:23:28;;;;;;;0.50;0.50;;;;;;;;;;4972314;28;20209;-64
2021/12/18 04:25:55;;;;;;;0.60;0.60;;;;;;;;;;4972711;28;20495;-65
2021/12/18 04:28:21;;;;;;;0.50;0.50;;;;;;;;;;4972668;28;20509;-65
2021/12/18 04:30:47;;;;;;;0.50;0.50;;;;;;;;;;4972010;28;20857;-64
2021/12/18 04:33:13;;;;;;;0.50;0.50;;;;;;;;;;4972555;28;20413;-65
2021/12/18 04:35:39;;;;;;;0.50;0.50;;;;;;;;;;4971334;28;20185;-65
2021/12/18 04:38:05;;;;;;;0.50;0.50;;;;;;;;;;4971357;28;20280;-65
2021/12/18 04:40:31;;;;;;;0.50;0.50;;;;;;;;;;4971872;28;20438;-64
2021/12/18 04:42:57;;;;;;;0.50;0.50;;;;;;;;;;4971151;28;20580;-65
2021/12/18 04:45:24;;;;;;;0.50;0.50;;;;;;;;;;4972443;28;20252;-64
2021/12/18 04:47:50;;;;;;;0.50;0.50;;;;;;;;;;4972400;28;20259;-64
2021/12/18 04:50:16;;;;;;;0.50;0.50;;;;;;;;;;4970492;28;20185;-64
2021/12/18 04:52:42;;;;;;;0.60;0.60;;;;;;;;;;4972451;28;20266;-64
2021/12/18 04:55:08;;;;;;;0.50;0.50;;;;;;;;;;4972374;28;20272;-64
2021/12/18 04:57:34;;;;;;;0.55;0.55;;;;;;;;;;4975744;28;20415;-64
2021/12/18 05:00:01;;;;;;;0.55;0.55;;;;;;;;;;4975864;28;20181;-64
2021/12/18 05:02:36;;;;;;;0.50;0.50;;;;;;;;;;4975347;28;20208;-64
2021/12/18 05:05:03;;;;;;;0.50;0.50;;;;;;;;;;4974593;28;20559;-64
2021/12/18 05:07:29;;;;;;;0.70;0.70;;;;;;;;;;4975867;28;20197;-64
2021/12/18 05:09:55;;;;;;;0.60;0.60;;;;;;;;;;4975901;28;20175;-64
2021/12/18 05:12:21;;;;;;;0.50;0.50;;;;;;;;;;4975053;28;20565;-64
2021/12/18 05:14:47;;;;;;;0.50;0.50;;;;;;;;;;4975543;28;20901;-64
2021/12/18 05:17:13;;;;;;;0.60;0.60;;;;;;;;;;4975765;28;20787;-63
2021/12/18 05:19:39;;;;;;;0.50;0.50;;;;;;;;;;4975863;28;20422;-65
2021/12/18 05:22:05;;;;;;;0.60;0.60;;;;;;;;;;4974814;28;20465;-64
2021/12/18 05:24:31;;;;;;;0.50;0.50;;;;;;;;;;4975544;28;20438;-64
2021/12/18 05:26:57;;;;;;;0.50;0.50;;;;;;;;;;4975541;28;20176;-64
2021/12/18 05:29:23;;;;;;;0.50;0.50;;;;;;;;;;4975426;28;20192;-64
2021/12/18 05:31:50;;;;;;;0.60;0.60;;;;;;;;;;4974869;28;20199;-64
2021/12/18 05:34:22;;;;;;;0.50;0.50;;;;;;;;;;4975362;28;20446;-64
2021/12/18 05:39:24;;;;;;;0.50;0.50;;;;;;;;;;4975511;28;20677;-64
2021/12/18 05:41:51;;;;;;;0.50;0.50;;;;;;;;;;4974386;28;20580;-64
2021/12/18 05:44:21;;;;;;;0.52;0.52;;;;;;;;;;4975091;28;20177;-64
2021/12/18 05:46:47;;;;;;;0.50;0.50;;;;;;;;;;4975194;28;20172;-64
2021/12/18 05:49:13;;;;;;;0.60;0.60;;;;;;;;;;4975195;28;20195;-64
2021/12/18 05:51:40;;;;;;;0.60;0.60;;;;;;;;;;4974412;28;20195;-64
2021/12/18 05:54:06;;;;;;;0.50;0.50;;;;;;;;;;4975023;28;20180;-64
2021/12/18 05:56:33;;;;;;;0.50;0.50;;;;;;;;;;4974924;28;20645;-64
2021/12/18 05:59:00;;;;;;;0.60;0.60;;;;;;;;;;4974924;28;20174;-65
2021/12/18 06:01:27;;;;;;;0.50;0.50;;;;;;;;;;4974205;28;20198;-64
2021/12/18 06:03:53;;;;;;;0.50;0.50;;;;;;;;;;4974802;28;20286;-64
2021/12/18 06:06:21;;;;;;;0.50;0.50;;;;;;;;;;4974888;28;20268;-64
2021/12/18 06:08:47;;;;;;;0.60;0.60;;;;;;;;;;4974401;28;20171;-64
2021/12/18 06:11:16;;;;;;;0.50;0.50;;;;;;;;;;4973943;28;20877;-64
2021/12/18 06:13:42;;;;;;;0.50;0.50;;;;;;;;;;4974680;28;21042;-64
2021/12/18 06:16:08;;;;;;;0.60;0.60;;;;;;;;;;4974665;28;20279;-64
2021/12/18 06:18:35;;;;;;;0.70;0.70;;;;;;;;;;4973473;28;20179;-64
2021/12/18 06:21:01;;;;;;;0.50;0.50;;;;;;;;;;4973804;28;20582;-64
2021/12/18 06:23:28;;;;;;;0.50;0.50;;;;;;;;;;4974332;28;20237;-64
2021/12/18 06:25:53;;;;;;;0.60;0.60;;;;;;;;;;4974742;28;20189;-64
2021/12/18 06:28:19;;;;;;;0.50;0.50;;;;;;;;;;4974481;28;20674;-64
2021/12/18 06:30:45;;;;;;;0.50;0.50;;;;;;;;;;4973638;28;20885;-64
2021/12/18 06:33:11;;;;;;;0.60;0.60;;;;;;;;;;4974342;28;20466;-64
2021/12/18 06:35:37;;;;;;;0.50;0.50;;;;;;;;;;4974264;28;20447;-64
2021/12/18 06:38:03;;;;;;;0.60;0.60;;;;;;;;;;4974119;28;20413;-65
2021/12/18 06:40:29;;;;;;;0.50;0.50;;;;;;;;;;4973439;28;20434;-64
2021/12/18 06:42:55;;;;;;;0.60;0.60;;;;;;;;;;4974022;28;20210;-64
2021/12/18 06:45:21;;;;;;;0.50;0.50;;;;;;;;;;4973855;28;20418;-64
2021/12/18 06:47:47;;;;;;;0.57;0.57;;;;;;;;;;4973945;28;20181;-64
2021/12/18 06:50:13;;;;;;;0.60;0.60;;;;;;;;;;4973042;28;20415;-64
2021/12/18 06:52:39;;;;;;;0.50;0.50;;;;;;;;;;4973968;28;20462;-64
2021/12/18 06:55:06;;;;;;;0.50;0.50;;;;;;;;;;4973883;28;20430;-64
2021/12/18 06:57:32;;;;;;;0.60;0.60;;;;;;;;;;4973671;28;20442;-64
2021/12/18 06:59:58;;;;;;;0.50;0.50;;;;;;;;;;4973635;28;20184;-64
2021/12/18 07:02:24;;;;;;;0.50;0.50;;;;;;;;;;4973011;28;20219;-64
2021/12/18 07:04:51;;;;;;;0.50;0.50;;;;;;;;;;4973599;28;20442;-64
2021/12/18 07:07:17;;;;;;;0.50;0.50;;;;;;;;;;4973498;28;20228;-64
2021/12/18 07:09:43;;;;;;;0.50;0.50;;;;;;;;;;4973689;28;20242;-64
2021/12/18 07:12:10;;;;;;;0.50;0.50;;;;;;;;;;4972702;28;20215;-64
2021/12/18 07:14:36;;;;;;;0.60;0.60;;;;;;;;;;4973350;28;20548;-64
2021/12/18 07:17:02;;;;;;;0.50;0.50;;;;;;;;;;4972254;28;20176;-64
2021/12/18 07:19:28;;;;;;;0.50;0.50;;;;;;;;;;4970476;28;20764;-64
2021/12/18 07:21:54;;;;;;;0.40;0.40;;;;;;;;;;4972540;28;20239;-64
2021/12/18 07:24:20;;;;;;;0.50;0.50;;;;;;;;;;4973449;28;20407;-64
2021/12/18 07:26:46;;;;;;;0.50;0.50;;;;;;;;;;4973077;28;20406;-64
2021/12/18 07:29:12;;;;;;;0.50;0.50;;;;;;;;;;4973266;28;20526;-64
2021/12/18 07:31:38;;;;;;;0.60;0.60;;;;;;;;;;4972594;28;20252;-64
2021/12/18 07:34:04;;;;;;;0.57;0.57;;;;;;;;;;4973298;28;20415;-64
2021/12/18 07:36:30;;;;;;;0.50;0.50;;;;;;;;;;4973173;28;20485;-66
2021/12/18 07:38:56;;;;;;;0.50;0.50;;;;;;;;;;4973087;28;20264;-64
2021/12/18 07:41:22;;;;;;;0.50;0.50;;;;;;;;;;4972464;28;20432;-64
2021/12/18 07:43:48;;;;;;;0.50;0.50;;;;;;;;;;4973050;28;20451;-64
2021/12/18 07:46:14;;;;;;;0.60;0.60;;;;;;;;;;4973150;28;20181;-64
2021/12/18 07:48:40;;;;;;;0.50;0.50;;;;;;;;;;4973140;28;20473;-64
2021/12/18 07:51:06;;;;;;;0.50;0.50;;;;;;;;;;4971927;28;20660;-64
2021/12/18 07:53:32;;;;;;;0.60;0.60;;;;;;;;;;4972942;28;20198;-66
2021/12/18 07:55:58;;;;;;;0.50;0.50;;;;;;;;;;4972915;28;20543;-64
2021/12/18 07:58:25;;;;;;;0.50;0.50;;;;;;;;;;4972972;28;20243;-64
2021/12/18 08:00:51;;;;;;;0.50;0.50;;;;;;;;;;4972162;28;20870;-64
2021/12/18 08:03:17;;;;;;;0.60;0.60;;;;;;;;;;4972526;28;20291;-64
2021/12/18 08:05:43;;;;;;;0.50;0.50;;;;;;;;;;4972798;28;20194;-64
2021/12/18 08:08:09;;;;;;;0.43;0.43;;;;;;;;;;4972911;28;20676;-64
2021/12/18 08:10:35;;;;;;;0.50;0.50;;;;;;;;;;4972015;28;20451;-64
2021/12/18 08:13:01;;;;;;;0.50;0.50;;;;;;;;;;4972845;28;20419;-64
2021/12/18 08:15:27;;;;;;;0.60;0.60;;;;;;;;;;4972454;28;20796;-64
2021/12/18 08:17:53;;;;;;;0.50;0.50;;;;;;;;;;4971414;28;20803;-64
2021/12/18 08:20:19;;;;;;;0.50;0.50;;;;;;;;;;4971916;28;20183;-64
2021/12/18 08:22:45;;;;;;;0.50;0.50;;;;;;;;;;4971259;28;20610;-65
2021/12/18 08:25:11;;;;;;;0.50;0.50;;;;;;;;;;4971360;28;20181;-64
2021/12/18 08:27:37;;;;;;;0.50;0.50;;;;;;;;;;4972458;28;20405;-64
2021/12/18 08:30:04;;;;;;;0.50;0.50;;;;;;;;;;4972050;28;20494;-63
2021/12/18 08:32:30;;;;;;;0.55;0.55;;;;;;;;;;4975762;28;20516;-64
2021/12/18 08:34:55;;;;;;;0.50;0.50;;;;;;;;;;4976206;28;20657;-64
2021/12/18 08:37:21;;;;;;;0.50;0.50;;;;;;;;;;4976361;28;20773;-64
2021/12/18 08:39:48;;;;;;;0.60;0.60;;;;;;;;;;4975150;28;20412;-64
2021/12/18 08:42:14;;;;;;;0.50;0.50;;;;;;;;;;4974267;28;20635;-64
2021/12/18 08:44:40;;;;;;;0.60;0.60;;;;;;;;;;4976284;28;20172;-64
2021/12/18 08:47:06;;;;;;;0.50;0.50;;;;;;;;;;4976229;28;20417;-64
2021/12/18 08:49:32;;;;;;;0.50;0.50;;;;;;;;;;4976166;28;20803;-64
2021/12/18 08:51:58;;;;;;;0.40;0.40;;;;;;;;;;4975462;28;20744;-64
2021/12/18 08:54:24;;;;;;;0.53;0.53;;;;;;;;;;4973475;28;20181;-65
2021/12/18 08:56:50;;;;;;;0.50;0.50;;;;;;;;;;4975885;28;20779;-66
2021/12/18 08:59:16;;;;;;;0.50;0.50;;;;;;;;;;4975979;28;20180;-64
2021/12/18 09:01:42;;;;;;;0.70;0.70;;;;;;;;;;4975352;28;20432;-65
2021/12/18 09:04:08;;;;;;;0.50;0.50;;;;;;;;;;4975751;28;20527;-64
2021/12/18 09:06:34;;;;;;;0.50;0.50;;;;;;;;;;4974547;28;20261;-64
2021/12/18 09:09:00;;;;;;;0.50;0.50;;;;;;;;;;4975703;28;20407;-64
2021/12/18 09:11:26;;;;;;;0.50;0.50;;;;;;;;;;4974980;28;20652;-64
2021/12/18 09:13:52;;;;;;;0.50;0.50;;;;;;;;;;4971131;28;20443;-64
2021/12/18 09:16:18;;;;;;;0.50;0.50;;;;;;;;;;4987231;28;20180;-64
2021/12/18 09:18:44;;;;;;;0.52;0.52;;;;;;;;;;4989551;28;20342;-64
2021/12/18 09:21:10;;;;;;;0.50;0.50;;;;;;;;;;4974873;28;20222;-64
2021/12/18 09:23:36;;;;;;;0.50;0.50;;;;;;;;;;4974671;28;20205;-64
2021/12/18 09:26:02;;;;;;;0.60;0.60;;;;;;;;;;4975434;28;20184;-64
2021/12/18 09:28:29;;;;;;;0.50;0.50;;;;;;;;;;4980925;28;20503;-64
2021/12/18 09:30:54;;;;;;;0.60;0.60;;;;;;;;;;4979745;28;20804;-64
2021/12/18 09:33:22;;;;;;;0.50;0.50;;;;;;;;;;4983237;28;20191;-64
2021/12/18 09:35:48;;;;;;;0.60;0.60;;;;;;;;;;4984647;28;20499;-65
2021/12/18 09:38:14;;;;;;;0.50;0.50;;;;;;;;;;4983922;28;20265;-65
2021/12/18 09:40:40;;;;;;;0.50;0.50;;;;;;;;;;4982480;28;20444;-66
2021/12/18 09:43:06;;;;;;;0.52;0.52;;;;;;;;;;4982297;28;20455;-65
2021/12/18 09:45:32;;;;;;;0.50;0.50;;;;;;;;;;4991897;28;20182;-65
2021/12/18 09:47:58;;;;;;;0.60;0.60;;;;;;;;;;4981880;28;20607;-65
2021/12/18 09:50:25;;;;;;;0.50;0.50;;;;;;;;;;4981232;28;20232;-65
2021/12/18 09:52:51;;;;;;;0.50;0.50;;;;;;;;;;4979314;28;20218;-65
2021/12/18 09:55:18;;;;;;;0.63;0.63;;;;;;;;;;4975311;28;20182;-65
2021/12/18 09:57:45;;;;;;;0.60;0.60;;;;;;;;;;4962006;28;20665;-65
2021/12/18 10:00:15;;;;;;;0.60;0.60;;;;;;;;;;4974273;28;20553;-65
2021/12/18 10:02:42;;;;;;;0.50;0.50;;;;;;;;;;4974110;28;20212;-65
2021/12/18 10:05:18;;;;;;;0.50;0.50;;;;;;;;;;4974700;28;20177;-65
2021/12/18 10:07:44;;;;;;;0.50;0.50;;;;;;;;;;4974204;28;20185;-65
2021/12/18 10:10:10;;;;;;;0.57;0.57;;;;;;;;;;4973764;28;20178;-65
2021/12/18 10:12:37;;;;;;;0.50;0.50;;;;;;;;;;5041622;23;20507;-64
2021/12/18 10:15:05;;;;;;;0.60;0.60;;;;;;;;;;4992946;28;20565;-64
2021/12/18 10:17:32;;;;;;;0.60;0.60;;;;;;;;;;4993672;28;20227;-64
2021/12/18 10:20:10;;;;;;;0.50;0.50;;;;;;;;;;4994265;28;20225;-65
2021/12/18 10:22:47;;;;;;;0.60;0.60;;;;;;;;;;4996986;28;20205;-64
2021/12/18 10:25:13;;;;;;;0.50;0.50;;;;;;;;;;4994395;28;20254;-64
2021/12/18 10:27:42;;;;;;;0.50;0.50;;;;;;;;;;4992945;28;20684;-64
2021/12/18 10:30:20;;;;;;;0.60;0.60;;;;;;;;;;4993478;28;20191;-64
2021/12/18 10:33:04;;;;;;;0.68;0.68;;;;;;;;;;4993621;28;20196;-64
2021/12/18 10:35:39;;;;;;;0.50;0.50;;;;;;;;;;4995131;28;20181;-64
2021/12/18 10:38:05;;;;;;;0.50;0.50;;;;;;;;;;4994838;28;20187;-64
2021/12/18 10:40:42;;;;;;;0.50;0.50;;;;;;;;;;4993698;28;20217;-66
2021/12/18 10:43:08;;;;;;;0.50;0.50;;;;;;;;;;4993714;28;20257;-64
2021/12/18 10:45:35;;;;;;;0.50;0.50;;;;;;;;;;4993105;28;20177;-64
2021/12/18 10:48:03;;;;;;;0.57;0.57;;;;;;;;;;4993913;28;20407;-65
2021/12/18 10:50:50;;;;;;;0.60;0.60;;;;;;;;;;4991728;28;20223;-64
2021/12/18 10:53:16;;;;;;;0.50;0.50;;;;;;;;;;4993513;28;20647;-65
2021/12/18 10:55:48;;;;;;;0.60;0.60;;;;;;;;;;4993252;28;20225;-64
2021/12/18 10:58:31;;;;;;;0.50;0.50;;;;;;;;;;4993535;28;20451;-64
2021/12/18 11:00:58;;;;;;;0.50;0.50;;;;;;;;;;4992505;28;20236;-64
2021/12/18 11:03:28;;;;;;;0.50;0.50;;;;;;;;;;4993091;28;20227;-64
2021/12/18 11:06:05;;;;;;;0.50;0.50;;;;;;;;;;4992088;28;20169;-65
2021/12/18 11:08:31;;;;;;;0.50;0.50;;;;;;;;;;4993286;28;20247;-64
2021/12/18 11:13:50;;;;;;;0.50;0.50;;;;;;;;;;4993163;28;20187;-64
2021/12/18 11:16:17;;;;;;;0.50;0.50;;;;;;;;;;4993111;28;20702;-64
2021/12/18 11:18:43;;;;;;;0.50;0.50;;;;;;;;;;4993296;28;20568;-64
2021/12/18 11:21:09;;;;;;;0.50;0.50;;;;;;;;;;4990909;28;20639;-64
2021/12/18 11:23:39;;;;;;;0.50;0.50;;;;;;;;;;4992835;28;20196;-64
2021/12/18 11:26:06;;;;;;;0.40;0.40;;;;;;;;;;4993040;28;20413;-67
2021/12/18 11:28:32;;;;;;;0.50;0.50;;;;;;;;;;4992966;28;20546;-64
2021/12/18 11:30:58;;;;;;;0.50;0.50;;;;;;;;;;4992459;28;20608;-64
2021/12/18 11:33:24;;;;;;;0.60;0.60;;;;;;;;;;4992684;28;20183;-63
2021/12/18 11:35:50;;;;;;;0.50;0.50;;;;;;;;;;4992626;28;20187;-64
2021/12/18 11:38:16;;;;;;;0.50;0.50;;;;;;;;;;4991349;28;20638;-64
2021/12/18 11:40:42;;;;;;;0.50;0.50;;;;;;;;;;4991803;28;20494;-64
2021/12/18 11:43:28;;;;;;;0.50;0.50;;;;;;;;;;4991283;28;20216;-64
2021/12/18 11:45:55;;;;;;;0.50;0.50;;;;;;;;;;4992437;28;20208;-64
2021/12/18 11:48:21;;;;;;;0.60;0.60;;;;;;;;;;4991296;28;20728;-64
2021/12/18 11:50:48;;;;;;;0.50;0.50;;;;;;;;;;4991510;28;20208;-64
2021/12/18 11:53:18;;;;;;;0.40;0.40;;;;;;;;;;4992467;28;20416;-64
2021/12/18 11:55:50;;;;;;;0.50;0.50;;;;;;;;;;4992395;28;20174;-64
2021/12/18 11:58:17;;;;;;;0.50;0.50;;;;;;;;;;4992408;28;20640;-64
2021/12/18 12:00:49;;;;;;;0.50;0.50;;;;;;;;;;4991693;28;20411;-64
2021/12/18 12:03:26;;;;;;;0.50;0.50;;;;;;;;;;4992203;28;20350;-64
2021/12/18 12:05:52;;;;;;;0.60;0.60;;;;;;;;;;4990695;28;20176;-64
2021/12/18 12:08:22;;;;;;;0.50;0.50;;;;;;;;;;4992691;28;20188;-64
2021/12/18 12:11:15;;;;;;;0.50;0.50;;;;;;;;;;4991613;28;20178;-64
2021/12/18 12:13:54;;;;;;;0.50;0.50;;;;;;;;;;4992089;28;20185;-64
2021/12/18 12:16:40;;;;;;;0.40;0.40;;;;;;;;;;4992223;28;20177;-64
2021/12/18 12:19:07;;;;;;;0.60;0.60;;;;;;;;;;4992204;28;20189;-64
2021/12/18 12:21:46;;;;;;;0.50;0.50;;;;;;;;;;4991412;28;20203;-64
2021/12/18 12:24:13;;;;;;;0.50;0.50;;;;;;;;;;4989398;28;20208;-64
2021/12/18 12:26:39;;;;;;;0.50;0.50;;;;;;;;;;4967966;28;20197;-64
2021/12/18 12:29:06;;;;;;;0.50;0.50;;;;;;;;;;4972499;28;20173;-64
2021/12/18 12:31:33;;;;;;;0.50;0.50;;;;;;;;;;4972152;28;20196;-64
2021/12/18 12:34:17;;;;;;;0.50;0.50;;;;;;;;;;4972631;28;20182;-64
2021/12/18 12:36:45;;;;;;;0.60;0.60;;;;;;;;;;4972517;28;20194;-64
2021/12/18 12:39:13;;;;;;;0.40;0.40;;;;;;;;;;4972445;28;20173;-64
2021/12/18 12:41:49;;;;;;;0.60;0.60;;;;;;;;;;4970735;28;20253;-65
2021/12/18 12:44:26;;;;;;;0.50;0.50;;;;;;;;;;4972484;28;20213;-65
2021/12/18 12:47:11;;;;;;;0.50;0.50;;;;;;;;;;4972483;28;20264;-64
2021/12/18 12:49:37;;;;;;;0.50;0.50;;;;;;;;;;4971809;28;20178;-63
2021/12/18 12:52:13;;;;;;;0.50;0.50;;;;;;;;;;4971813;28;20227;-63
2021/12/18 12:54:51;;;;;;;0.50;0.50;;;;;;;;;;4972377;28;20549;-64
2021/12/18 12:57:40;;;;;;;0.60;0.60;;;;;;;;;;4972285;28;20227;-65
2021/12/18 13:00:06;;;;;;;0.50;0.50;;;;;;;;;;4971573;28;20658;-64
2021/12/18 13:02:34;;;;;;;0.57;0.57;;;;;;;;;;4971102;28;20320;-64
2021/12/18 13:05:08;;;;;;;0.50;0.50;;;;;;;;;;4972467;28;20424;-64
2021/12/18 13:07:34;;;;;;;0.50;0.50;;;;;;;;;;4972432;28;20182;-65
2021/12/18 13:10:00;;;;;;;0.50;0.50;;;;;;;;;;4971849;28;20182;-63
2021/12/18 13:12:26;;;;;;;0.50;0.50;;;;;;;;;;4972282;28;20276;-64
2021/12/18 13:14:52;;;;;;;0.50;0.50;;;;;;;;;;4972511;28;20468;-64
2021/12/18 13:17:22;;;;;;;0.50;0.50;;;;;;;;;;4971052;28;20590;-64
2021/12/18 13:19:55;;;;;;;0.50;0.50;;;;;;;;;;4975874;28;20650;-65
2021/12/18 13:22:26;;;;;;;0.40;0.40;;;;;;;;;;4974904;28;20292;-64
2021/12/18 13:25:04;;;;;;;0.40;0.40;;;;;;;;;;4975600;28;20185;-65
2021/12/18 13:27:30;;;;;;;0.50;0.50;;;;;;;;;;4975663;28;20176;-64
2021/12/18 13:30:28;;;;;;;0.50;0.50;;;;;;;;;;4975626;28;20174;-64
2021/12/18 13:32:59;;;;;;;0.50;0.50;;;;;;;;;;4974479;28;20228;-64
2021/12/18 13:35:26;;;;;;;0.50;0.50;;;;;;;;;;4977827;28;20287;-64
2021/12/18 13:38:03;;;;;;;0.50;0.50;;;;;;;;;;4975672;28;20177;-64
2021/12/18 13:40:30;;;;;;;0.50;0.50;;;;;;;;;;4974897;28;20714;-64
2021/12/18 13:43:23;;;;;;;0.50;0.50;;;;;;;;;;4975171;28;20213;-64
2021/12/18 13:45:51;;;;;;;0.50;0.50;;;;;;;;;;4975220;28;20193;-64
2021/12/18 13:48:18;;;;;;;0.50;0.50;;;;;;;;;;4975887;28;20197;-62
2021/12/18 13:50:52;;;;;;;0.50;0.50;;;;;;;;;;4975471;28;20173;-65
2021/12/18 13:53:17;;;;;;;0.50;0.50;;;;;;;;;;4976412;28;20207;-64
2021/12/18 13:55:47;;;;;;;0.50;0.50;;;;;;;;;;4975695;28;20220;-64
2021/12/18 13:58:18;;;;;;;0.50;0.50;;;;;;;;;;4974078;28;20479;-64
2021/12/18 14:01:01;;;;;;;0.55;0.55;;;;;;;;;;4974447;28;20261;-63
2021/12/18 14:03:45;;;;;;;0.50;0.50;;;;;;;;;;4973731;28;20231;-63
2021/12/18 14:06:19;;;;;;;0.40;0.40;;;;;;;;;;4975239;28;20664;-64
2021/12/18 14:09:05;;;;;;;0.50;0.50;;;;;;;;;;4975053;28;20189;-64
2021/12/18 14:11:41;;;;;;;0.50;0.50;;;;;;;;;;4973611;28;20248;-64
2021/12/18 14:14:09;;;;;;;0.50;0.50;;;;;;;;;;4976094;28;20924;-62
2021/12/18 14:16:35;;;;;;;0.50;0.50;;;;;;;;;;4976039;28;20267;-64
2021/12/18 14:19:03;;;;;;;0.50;0.50;;;;;;;;;;4976772;28;20178;-64
2021/12/18 14:21:33;;;;;;;0.50;0.50;;;;;;;;;;4974023;28;20296;-64
2021/12/18 14:24:00;;;;;;;0.50;0.50;;;;;;;;;;4975323;28;20624;-62
2021/12/18 14:26:27;;;;;;;0.50;0.50;;;;;;;;;;4975698;28;20196;-63
2021/12/18 14:28:55;;;;;;;0.60;0.60;;;;;;;;;;4974860;28;20246;-63
2021/12/18 14:31:27;;;;;;;0.50;0.50;;;;;;;;;;4973091;28;20255;-63
2021/12/18 14:33:54;;;;;;;0.50;0.50;;;;;;;;;;4975212;28;20182;-62
2021/12/18 14:36:43;;;;;;;0.60;0.60;;;;;;;;;;4973652;28;20251;-64
2021/12/18 14:39:09;;;;;;;0.40;0.40;;;;;;;;;;4972645;28;20193;-64
2021/12/18 14:41:36;;;;;;;0.60;0.60;;;;;;;;;;4973584;28;20201;-64
2021/12/18 14:44:06;;;;;;;0.50;0.50;;;;;;;;;;4974315;28;20634;-62
2021/12/18 14:46:32;;;;;;;0.50;0.50;;;;;;;;;;4974384;28;20184;-63
2021/12/18 14:49:09;;;;;;;0.50;0.50;;;;;;;;;;4974469;28;20178;-64
2021/12/18 14:51:37;;;;;;;0.50;0.50;;;;;;;;;;4973536;28;20254;-62
2021/12/18 14:54:03;;;;;;;0.50;0.50;;;;;;;;;;4974079;28;20196;-63
2021/12/18 14:56:29;;;;;;;0.40;0.40;;;;;;;;;;4974057;28;20190;-64
2021/12/18 14:58:55;;;;;;;0.50;0.50;;;;;;;;;;4974188;28;20177;-64
2021/12/18 15:01:23;;;;;;;0.50;0.50;;;;;;;;;;4972984;28;20443;-63
2021/12/18 15:03:50;;;;;;;0.50;0.50;;;;;;;;;;4973637;28;21035;-64
2021/12/18 15:06:24;;;;;;;0.50;0.50;;;;;;;;;;4973943;28;20188;-63
2021/12/18 15:09:12;;;;;;;0.50;0.50;;;;;;;;;;4973725;28;20175;-61
2021/12/18 15:11:39;;;;;;;0.50;0.50;;;;;;;;;;4971078;28;20905;-64
2021/12/18 15:14:04;;;;;;;0.50;0.50;;;;;;;;;;4972314;28;20645;-64
2021/12/18 15:16:54;;;;;;;0.60;0.60;;;;;;;;;;4971548;28;20270;-62
2021/12/18 15:19:24;;;;;;;0.50;0.50;;;;;;;;;;4992593;28;20424;-63
2021/12/18 15:21:51;;;;;;;0.70;0.70;;;;;;;;;;4992201;28;20200;-64
2021/12/18 15:24:18;;;;;;;0.50;0.50;;;;;;;;;;4992557;28;20216;-63
2021/12/18 15:26:45;;;;;;;0.45;0.45;;;;;;;;;;4992832;28;20528;-61
2021/12/18 15:29:12;;;;;;;0.55;0.55;;;;;;;;;;4992730;28;20176;-64
2021/12/18 15:31:39;;;;;;;0.50;0.50;;;;;;;;;;4992282;28;20229;-64
2021/12/18 15:34:10;;;;;;;0.40;0.40;;;;;;;;;;4992925;28;20176;-64
2021/12/18 15:36:36;;;;;;;0.50;0.50;;;;;;;;;;4992540;28;20183;-63